Time;durP1;ratioP1;P1;durP2;ratioP2;P2;SDS_P1;SDS_P2;PMS_P1;PMS_P2;Temp;Humidity;BMP_temperature;BMP_pressure;BME280_temperature;BME280_humidity;BME280_pressure;Samples;Min_cycle;Max_cycle;Signal;HPM_P1;HPM_P2
2021/12/07 00:01:41;;;;;;;46.30;25.77;;;;;;;;;;721799;190;1021260;-66
2021/12/07 00:04:07;;;;;;;47.92;25.95;;;;;;;;;;720189;190;918613;-67
2021/12/07 00:06:33;;;;;;;43.83;24.77;;;;;;;;;;735160;189;919431;-67
2021/12/07 00:08:59;;;;;;;44.90;23.90;;;;;;;;;;722347;189;919388;-67
2021/12/07 00:11:25;;;;;;;42.88;23.80;;;;;;;;;;720023;189;919276;-66
2021/12/07 00:13:50;;;;;;;42.80;23.77;;;;;;;;;;732148;189;918528;-67
2021/12/07 00:16:18;;;;;;;46.60;22.80;;;;;;;;;;719681;189;919934;-67
2021/12/07 00:18:42;;;;;;;44.07;26.37;;;;;;;;;;721625;189;919570;-67
2021/12/07 00:21:08;;;;;;;43.57;25.60;;;;;;;;;;734738;189;919229;-68
2021/12/07 00:23:34;;;;;;;43.00;22.10;;;;;;;;;;722893;189;919418;-67
2021/12/07 00:26:00;;;;;;;57.60;26.10;;;;;;;;;;722000;189;919475;-66
2021/12/07 00:28:26;;;;;;;39.13;21.52;;;;;;;;;;722423;189;931276;-64
2021/12/07 00:30:53;;;;;;;47.07;24.10;;;;;;;;;;731693;189;919381;-66
2021/12/07 00:33:34;;;;;;;41.97;20.90;;;;;;;;;;716877;193;934329;-66
2021/12/07 00:35:44;;;;;;;47.20;24.43;;;;;;;;;;732716;189;919312;-67
2021/12/07 00:38:10;;;;;;;51.00;25.67;;;;;;;;;;735532;189;919574;-66
2021/12/07 00:40:36;;;;;;;46.40;25.43;;;;;;;;;;721925;189;918222;-66
2021/12/07 00:43:02;;;;;;;49.87;25.27;;;;;;;;;;733632;189;919182;-66
2021/12/07 00:45:31;;;;;;;45.97;26.87;;;;;;;;;;730050;189;919217;-66
2021/12/07 00:47:54;;;;;;;53.73;26.77;;;;;;;;;;723886;189;932366;-66
2021/12/07 00:50:20;;;;;;;46.43;25.93;;;;;;;;;;733335;189;918821;-67
2021/12/07 00:52:46;;;;;;;57.07;27.47;;;;;;;;;;728017;189;919567;-67
2021/12/07 00:55:12;;;;;;;57.83;28.00;;;;;;;;;;730250;189;920337;-67
2021/12/07 00:57:37;;;;;;;55.13;28.90;;;;;;;;;;728551;189;919400;-66
2021/12/07 01:00:07;;;;;;;51.13;27.87;;;;;;;;;;721325;189;919570;-66
2021/12/07 01:02:32;;;;;;;60.43;30.47;;;;;;;;;;730603;189;919089;-68
2021/12/07 01:05:07;;;;;;;59.23;27.53;;;;;;;;;;719317;189;969652;-67
2021/12/07 01:25:05;;;;;;;52.63;28.40;;;;;;;;;;723895;191;919187;-66
2021/12/07 01:27:31;;;;;;;51.20;28.87;;;;;;;;;;725269;189;919290;-66
2021/12/07 01:30:19;;;;;;;50.43;25.97;;;;;;;;;;726285;189;919661;-67
2021/12/07 01:33:31;;;;;;;44.43;22.47;;;;;;;;;;725975;186;918317;-66
2021/12/07 01:35:42;;;;;;;54.90;28.63;;;;;;;;;;722941;190;919506;-68
2021/12/07 01:40:45;;;;;;;47.47;24.17;;;;;;;;;;725967;189;917800;-67
2021/12/07 01:49:43;;;;;;;50.67;25.47;;;;;;;;;;728175;189;1021248;-66
2021/12/07 01:50:49;;;;;;;45.00;24.33;;;;;;;;;;725976;189;922501;-67
2021/12/07 02:00:46;;;;;;;52.47;26.60;;;;;;;;;;718879;189;920126;-66
2021/12/07 02:03:12;;;;;;;60.15;30.20;;;;;;;;;;731026;189;916151;-67
2021/12/07 02:05:38;;;;;;;51.57;28.23;;;;;;;;;;728931;189;911089;-67
2021/12/07 02:08:04;;;;;;;54.47;25.93;;;;;;;;;;722899;189;910557;-67
2021/12/07 02:10:32;;;;;;;51.63;27.10;;;;;;;;;;718622;189;919147;-68
2021/12/07 02:13:02;;;;;;;46.60;23.17;;;;;;;;;;727192;189;956720;-66
2021/12/07 02:15:22;;;;;;;53.50;27.27;;;;;;;;;;720471;189;919545;-67
2021/12/07 02:17:48;;;;;;;52.93;27.83;;;;;;;;;;722905;189;919569;-67
2021/12/07 02:20:14;;;;;;;51.83;27.00;;;;;;;;;;721691;189;919398;-67
2021/12/07 02:22:40;;;;;;;51.40;25.48;;;;;;;;;;722382;189;918961;-66
2021/12/07 02:25:06;;;;;;;51.27;28.17;;;;;;;;;;709848;193;920756;-67
2021/12/07 02:27:32;;;;;;;53.73;26.70;;;;;;;;;;712134;192;1635184;-67
2021/12/07 02:29:58;;;;;;;47.53;27.10;;;;;;;;;;730490;189;919274;-67
2021/12/07 02:32:24;;;;;;;47.77;27.27;;;;;;;;;;721264;189;919719;-67
2021/12/07 02:34:57;;;;;;;53.87;28.50;;;;;;;;;;721153;189;1021310;-68
2021/12/07 02:37:19;;;;;;;49.40;25.37;;;;;;;;;;732595;189;919962;-66
2021/12/07 02:39:45;;;;;;;54.57;27.80;;;;;;;;;;732118;189;919377;-67
2021/12/07 02:42:11;;;;;;;50.37;27.20;;;;;;;;;;729030;189;924313;-67
2021/12/07 02:44:37;;;;;;;53.50;26.57;;;;;;;;;;724913;189;919022;-67
2021/12/07 02:47:03;;;;;;;47.70;26.87;;;;;;;;;;725319;189;919642;-68
2021/12/07 02:49:29;;;;;;;53.45;26.50;;;;;;;;;;725766;189;973376;-68
2021/12/07 02:51:54;;;;;;;49.33;26.23;;;;;;;;;;730557;186;917472;-67
2021/12/07 02:54:21;;;;;;;50.37;27.43;;;;;;;;;;736104;189;912273;-66
2021/12/07 02:56:46;;;;;;;53.30;26.60;;;;;;;;;;724518;189;919160;-67
2021/12/07 02:59:12;;;;;;;51.57;26.90;;;;;;;;;;721651;189;917707;-67
2021/12/07 03:01:45;;;;;;;61.57;28.90;;;;;;;;;;724889;189;919164;-66
2021/12/07 03:04:10;;;;;;;50.10;25.83;;;;;;;;;;722045;189;919694;-67
2021/12/07 03:06:44;;;;;;;57.35;28.48;;;;;;;;;;728241;189;915336;-67
2021/12/07 03:26:54;;;;;;;48.60;25.93;;;;;;;;;;721411;193;913020;-66
2021/12/07 03:29:20;;;;;;;43.67;24.60;;;;;;;;;;720012;193;912359;-66
2021/12/07 03:31:46;;;;;;;46.63;24.77;;;;;;;;;;718709;193;913234;-66
2021/12/07 03:34:12;;;;;;;45.60;27.23;;;;;;;;;;721762;193;638120;-65
2021/12/07 03:36:38;;;;;;;48.23;25.17;;;;;;;;;;718967;193;642839;-66
2021/12/07 03:39:04;;;;;;;50.17;27.60;;;;;;;;;;711479;193;625277;-66
2021/12/07 03:41:30;;;;;;;50.70;28.43;;;;;;;;;;717865;192;636966;-66
2021/12/07 03:43:56;;;;;;;62.80;31.20;;;;;;;;;;725512;193;623525;-65
2021/12/07 03:46:22;;;;;;;64.27;31.87;;;;;;;;;;723511;193;919856;-66
2021/12/07 03:48:48;;;;;;;90.67;46.27;;;;;;;;;;718935;193;919585;-66
2021/12/07 03:51:13;;;;;;;68.93;37.07;;;;;;;;;;730003;189;918990;-66
2021/12/07 03:53:39;;;;;;;58.07;33.00;;;;;;;;;;720273;189;919054;-66
2021/12/07 03:56:05;;;;;;;50.10;27.67;;;;;;;;;;723547;189;920450;-66
2021/12/07 03:58:32;;;;;;;60.80;30.40;;;;;;;;;;719502;189;939239;-66
2021/12/07 04:00:57;;;;;;;68.83;37.80;;;;;;;;;;730643;189;919041;-66
2021/12/07 04:03:23;;;;;;;71.47;39.67;;;;;;;;;;724857;189;919583;-65
2021/12/07 04:05:50;;;;;;;52.97;28.43;;;;;;;;;;728998;186;919391;-65
2021/12/07 04:08:14;;;;;;;59.07;29.90;;;;;;;;;;729363;189;919623;-65
2021/12/07 04:10:40;;;;;;;55.40;29.67;;;;;;;;;;729530;189;919085;-65
2021/12/07 04:13:06;;;;;;;48.70;28.97;;;;;;;;;;722278;189;914733;-65
2021/12/07 04:15:32;;;;;;;47.27;26.50;;;;;;;;;;729913;189;919702;-65
2021/12/07 04:17:58;;;;;;;47.70;24.97;;;;;;;;;;723033;189;914154;-65
2021/12/07 04:20:23;;;;;;;55.30;28.70;;;;;;;;;;724576;189;919913;-65
2021/12/07 04:22:49;;;;;;;54.87;27.07;;;;;;;;;;731288;189;919316;-65
2021/12/07 04:25:15;;;;;;;46.63;25.20;;;;;;;;;;729315;189;913993;-65
2021/12/07 04:27:41;;;;;;;49.67;28.60;;;;;;;;;;725599;189;919488;-65
2021/12/07 04:30:16;;;;;;;49.28;27.00;;;;;;;;;;724568;189;920627;-65
2021/12/07 04:32:42;;;;;;;44.27;25.73;;;;;;;;;;729222;189;1117614;-66
2021/12/07 04:35:08;;;;;;;51.83;25.23;;;;;;;;;;725423;189;919951;-65
2021/12/07 04:37:34;;;;;;;54.00;27.60;;;;;;;;;;726980;189;928241;-66
2021/12/07 04:39:59;;;;;;;53.07;29.60;;;;;;;;;;724238;189;915724;-66
2021/12/07 04:42:26;;;;;;;58.77;30.57;;;;;;;;;;734119;189;915776;-65
2021/12/07 04:44:55;;;;;;;55.07;29.10;;;;;;;;;;724958;189;916152;-65
2021/12/07 04:47:25;;;;;;;52.30;29.43;;;;;;;;;;721670;189;922318;-66
2021/12/07 04:50:24;;;;;;;62.00;30.40;;;;;;;;;;729564;189;915202;-66
2021/12/07 04:57:44;;;;;;;60.67;35.03;;;;;;;;;;730515;189;925820;-66
2021/12/07 05:00:08;;;;;;;81.07;42.60;;;;;;;;;;723486;189;915868;-65
2021/12/07 05:02:36;;;;;;;54.37;28.87;;;;;;;;;;721687;189;946162;-65
2021/12/07 05:05:00;;;;;;;51.50;27.10;;;;;;;;;;734740;189;915787;-65
2021/12/07 05:07:33;;;;;;;56.80;28.43;;;;;;;;;;726684;189;916453;-66
2021/12/07 05:12:33;;;;;;;57.28;32.83;;;;;;;;;;725682;189;915855;-65
2021/12/07 05:15:00;;;;;;;58.10;33.43;;;;;;;;;;737901;187;896445;-65
2021/12/07 05:17:45;;;;;;;52.70;26.67;;;;;;;;;;726227;189;990588;-65
2021/12/07 05:34:32;;;;;;;49.60;26.00;;;;;;;;;;729598;189;916254;-65
2021/12/07 05:37:59;;;;;;;56.47;29.57;;;;;;;;;;731164;189;920471;-65
2021/12/07 05:40:33;;;;;;;54.70;31.00;;;;;;;;;;726811;189;917205;-66
2021/12/07 05:42:57;;;;;;;77.50;43.53;;;;;;;;;;724677;189;919428;-65
2021/12/07 05:45:24;;;;;;;62.50;37.30;;;;;;;;;;729983;189;919104;-65
2021/12/07 05:47:50;;;;;;;51.83;28.70;;;;;;;;;;733300;189;896423;-66
2021/12/07 05:50:15;;;;;;;64.10;32.67;;;;;;;;;;722822;189;919572;-65
2021/12/07 05:52:41;;;;;;;53.95;29.40;;;;;;;;;;723888;189;919057;-65
2021/12/07 05:55:07;;;;;;;65.83;31.63;;;;;;;;;;715143;193;919472;-66
2021/12/07 05:57:33;;;;;;;59.97;30.90;;;;;;;;;;735497;189;633822;-66
2021/12/07 05:59:59;;;;;;;54.63;30.40;;;;;;;;;;732924;189;617747;-66
2021/12/07 06:02:25;;;;;;;67.27;34.80;;;;;;;;;;726127;188;624525;-66
2021/12/07 06:04:51;;;;;;;64.23;31.83;;;;;;;;;;726662;189;914432;-66
2021/12/07 06:07:16;;;;;;;61.92;33.60;;;;;;;;;;728493;186;915497;-65
2021/12/07 06:09:42;;;;;;;56.97;31.90;;;;;;;;;;724305;189;915640;-65
2021/12/07 06:12:08;;;;;;;61.57;31.83;;;;;;;;;;720708;189;914759;-65
2021/12/07 06:14:41;;;;;;;57.50;32.13;;;;;;;;;;730771;189;916225;-66
2021/12/07 06:17:00;;;;;;;58.53;28.10;;;;;;;;;;724222;189;915542;-66
2021/12/07 06:19:26;;;;;;;52.13;29.30;;;;;;;;;;723477;189;915462;-65
2021/12/07 06:21:51;;;;;;;55.20;30.00;;;;;;;;;;725715;189;915962;-65
2021/12/07 06:24:17;;;;;;;60.93;33.60;;;;;;;;;;727831;189;915135;-65
2021/12/07 06:26:43;;;;;;;64.53;34.90;;;;;;;;;;726884;189;916177;-66
2021/12/07 06:29:09;;;;;;;74.97;38.30;;;;;;;;;;726736;189;926979;-65
2021/12/07 06:31:35;;;;;;;76.40;38.43;;;;;;;;;;729164;189;917710;-65
2021/12/07 06:34:01;;;;;;;60.13;34.07;;;;;;;;;;727007;189;919063;-66
2021/12/07 06:36:26;;;;;;;68.10;34.23;;;;;;;;;;725422;189;916710;-65
2021/12/07 06:38:52;;;;;;;69.90;36.00;;;;;;;;;;728152;189;921759;-64
2021/12/07 06:41:18;;;;;;;60.70;30.43;;;;;;;;;;726217;189;918936;-68
2021/12/07 06:43:44;;;;;;;66.43;30.70;;;;;;;;;;729665;189;619597;-65
2021/12/07 06:46:10;;;;;;;59.27;30.70;;;;;;;;;;728263;189;631071;-65
2021/12/07 06:48:36;;;;;;;55.57;28.20;;;;;;;;;;736309;189;897441;-65
2021/12/07 06:51:02;;;;;;;59.47;26.90;;;;;;;;;;722087;186;1014890;-65
2021/12/07 06:53:30;;;;;;;59.03;31.20;;;;;;;;;;726918;189;643503;-66
2021/12/07 06:55:53;;;;;;;59.27;30.87;;;;;;;;;;730968;189;623913;-65
2021/12/07 06:58:19;;;;;;;61.53;33.90;;;;;;;;;;721098;189;916594;-65
2021/12/07 07:00:45;;;;;;;56.88;31.35;;;;;;;;;;721614;189;916092;-65
2021/12/07 07:03:11;;;;;;;63.67;31.13;;;;;;;;;;727977;189;916322;-65
2021/12/07 07:05:37;;;;;;;63.53;30.60;;;;;;;;;;727756;189;920002;-65
2021/12/07 07:08:03;;;;;;;67.22;31.98;;;;;;;;;;724407;189;915968;-66
2021/12/07 07:10:29;;;;;;;100.33;51.20;;;;;;;;;;724981;189;919782;-65
2021/12/07 07:12:54;;;;;;;75.97;33.93;;;;;;;;;;724910;189;916478;-65
2021/12/07 07:15:20;;;;;;;63.90;36.47;;;;;;;;;;719953;192;920145;-65
2021/12/07 07:17:46;;;;;;;77.63;40.47;;;;;;;;;;709336;196;916637;-65
2021/12/07 07:20:12;;;;;;;130.90;59.43;;;;;;;;;;715648;194;921202;-66
2021/12/07 07:22:38;;;;;;;80.60;39.90;;;;;;;;;;707307;193;919863;-65
2021/12/07 07:25:04;;;;;;;66.77;37.93;;;;;;;;;;712259;193;920192;-65
2021/12/07 07:27:30;;;;;;;66.50;33.47;;;;;;;;;;715681;193;921017;-66
2021/12/07 07:29:56;;;;;;;58.30;31.67;;;;;;;;;;715778;193;1019154;-65
2021/12/07 07:32:22;;;;;;;72.87;35.30;;;;;;;;;;718017;193;917751;-65
2021/12/07 07:34:47;;;;;;;70.25;37.30;;;;;;;;;;720407;193;921015;-66
2021/12/07 07:37:13;;;;;;;74.40;37.07;;;;;;;;;;717620;193;919045;-66
2021/12/07 07:39:40;;;;;;;65.83;32.30;;;;;;;;;;715277;193;919281;-65
2021/12/07 07:42:05;;;;;;;67.93;35.80;;;;;;;;;;714163;193;919011;-66
2021/12/07 07:44:31;;;;;;;68.80;38.10;;;;;;;;;;716290;193;924646;-65
2021/12/07 07:46:57;;;;;;;57.38;33.20;;;;;;;;;;714078;193;922035;-65
2021/12/07 07:49:23;;;;;;;59.43;33.00;;;;;;;;;;714245;193;919337;-64
2021/12/07 07:51:48;;;;;;;52.63;29.67;;;;;;;;;;720506;193;985140;-65
2021/12/07 07:54:14;;;;;;;67.62;38.72;;;;;;;;;;715831;193;920140;-65
2021/12/07 07:56:40;;;;;;;82.97;40.10;;;;;;;;;;727568;189;917279;-65
2021/12/07 07:59:06;;;;;;;65.63;32.80;;;;;;;;;;728429;189;915457;-65
2021/12/07 08:01:32;;;;;;;85.97;46.73;;;;;;;;;;727943;189;918507;-64
2021/12/07 08:03:58;;;;;;;59.30;32.20;;;;;;;;;;721284;189;921736;-63
2021/12/07 08:06:24;;;;;;;54.60;31.83;;;;;;;;;;722514;190;917335;-64
2021/12/07 08:08:49;;;;;;;60.30;32.50;;;;;;;;;;731894;189;915252;-64
2021/12/07 08:11:15;;;;;;;64.30;30.50;;;;;;;;;;726169;189;916245;-65
2021/12/07 08:13:41;;;;;;;53.57;28.30;;;;;;;;;;720581;190;918838;-62
2021/12/07 08:16:15;;;;;;;62.70;32.10;;;;;;;;;;731522;190;919943;-64
2021/12/07 08:18:33;;;;;;;53.42;28.02;;;;;;;;;;730343;189;919782;-63
2021/12/07 08:20:59;;;;;;;58.10;27.60;;;;;;;;;;731219;189;919194;-64
2021/12/07 08:23:24;;;;;;;73.47;47.00;;;;;;;;;;723735;190;917300;-64
2021/12/07 08:25:50;;;;;;;90.43;63.47;;;;;;;;;;726836;188;921429;-64
2021/12/07 08:28:19;;;;;;;72.53;41.30;;;;;;;;;;729529;189;919219;-63
2021/12/07 08:30:42;;;;;;;60.47;40.07;;;;;;;;;;722359;189;919904;-63
2021/12/07 08:33:08;;;;;;;55.27;27.20;;;;;;;;;;731386;189;919284;-63
2021/12/07 08:35:34;;;;;;;52.20;23.33;;;;;;;;;;716227;193;919536;-64
2021/12/07 08:38:00;;;;;;;51.27;24.90;;;;;;;;;;727937;189;919321;-64
2021/12/07 08:40:25;;;;;;;65.63;29.67;;;;;;;;;;727993;189;921292;-64
2021/12/07 08:42:51;;;;;;;55.93;31.73;;;;;;;;;;726489;189;919346;-64
2021/12/07 08:45:17;;;;;;;55.22;30.65;;;;;;;;;;723820;189;919465;-65
2021/12/07 08:47:43;;;;;;;53.90;31.03;;;;;;;;;;727928;189;919629;-65
2021/12/07 08:50:10;;;;;;;72.20;33.43;;;;;;;;;;724877;189;919063;-65
2021/12/07 08:52:36;;;;;;;62.03;34.33;;;;;;;;;;726348;189;921260;-65
2021/12/07 09:00:09;;;;;;;66.37;33.50;;;;;;;;;;714289;193;920671;-65
2021/12/07 09:02:35;;;;;;;58.77;28.73;;;;;;;;;;725680;189;919339;-65
2021/12/07 09:05:01;;;;;;;52.53;25.17;;;;;;;;;;725576;189;924220;-69
2021/12/07 09:07:27;;;;;;;52.60;28.07;;;;;;;;;;733218;189;919176;-66
2021/12/07 09:09:53;;;;;;;68.33;28.97;;;;;;;;;;727116;189;1022005;-65
2021/12/07 09:12:18;;;;;;;60.87;30.00;;;;;;;;;;726099;189;923861;-65
2021/12/07 09:14:44;;;;;;;81.00;39.47;;;;;;;;;;730200;189;918281;-65
2021/12/07 09:17:10;;;;;;;62.83;34.20;;;;;;;;;;722572;189;919207;-65
2021/12/07 09:19:36;;;;;;;57.40;29.57;;;;;;;;;;723543;189;919538;-65
2021/12/07 09:22:02;;;;;;;70.67;32.87;;;;;;;;;;722052;189;918980;-63
2021/12/07 09:24:28;;;;;;;83.20;37.20;;;;;;;;;;729629;189;919605;-63
2021/12/07 09:26:54;;;;;;;84.03;35.77;;;;;;;;;;728601;189;918553;-63
2021/12/07 09:29:19;;;;;;;104.33;48.10;;;;;;;;;;721933;189;918627;-63
2021/12/07 09:31:45;;;;;;;114.67;50.33;;;;;;;;;;725677;189;920200;-64
2021/12/07 09:34:11;;;;;;;109.93;45.80;;;;;;;;;;721372;189;920107;-64
2021/12/07 09:36:37;;;;;;;102.50;40.63;;;;;;;;;;716494;189;920052;-65
2021/12/07 09:39:03;;;;;;;73.30;35.60;;;;;;;;;;736363;187;919039;-64
2021/12/07 09:41:29;;;;;;;63.33;30.20;;;;;;;;;;730488;189;918998;-65
2021/12/07 09:43:55;;;;;;;74.97;31.83;;;;;;;;;;725474;189;1021203;-65
2021/12/07 09:46:21;;;;;;;78.43;32.37;;;;;;;;;;729648;189;919541;-65
2021/12/07 09:48:47;;;;;;;68.77;32.47;;;;;;;;;;722472;189;919115;-64
2021/12/07 09:51:13;;;;;;;71.47;30.27;;;;;;;;;;726595;189;918752;-64
2021/12/07 09:53:39;;;;;;;71.93;33.70;;;;;;;;;;723822;189;918599;-64
2021/12/07 09:56:05;;;;;;;78.82;34.55;;;;;;;;;;736648;189;918992;-64
2021/12/07 09:58:31;;;;;;;71.47;33.37;;;;;;;;;;709273;193;919248;-63
2021/12/07 10:00:57;;;;;;;69.93;30.67;;;;;;;;;;703935;196;919004;-64
2021/12/07 10:03:23;;;;;;;69.43;33.40;;;;;;;;;;721004;194;920078;-63
2021/12/07 10:05:48;;;;;;;90.17;41.10;;;;;;;;;;721758;189;918052;-63
2021/12/07 10:08:14;;;;;;;102.93;41.40;;;;;;;;;;730636;189;920291;-63
2021/12/07 10:10:44;;;;;;;168.17;64.50;;;;;;;;;;728493;190;914654;-63
2021/12/07 10:13:10;;;;;;;93.63;39.53;;;;;;;;;;719811;190;922333;-64
2021/12/07 10:15:36;;;;;;;86.80;36.70;;;;;;;;;;723867;189;918506;-64
2021/12/07 10:18:12;;;;;;;77.33;33.97;;;;;;;;;;726935;186;1017051;-64
2021/12/07 10:20:40;;;;;;;70.93;33.77;;;;;;;;;;725376;189;925057;-64
2021/12/07 10:23:05;;;;;;;64.83;33.80;;;;;;;;;;728690;189;901100;-64
2021/12/07 10:25:30;;;;;;;68.57;33.27;;;;;;;;;;719580;189;916655;-63
2021/12/07 10:27:57;;;;;;;67.00;32.00;;;;;;;;;;726266;189;915323;-64
2021/12/07 10:30:22;;;;;;;68.93;31.20;;;;;;;;;;722951;189;925903;-63
2021/12/07 10:32:53;;;;;;;58.97;26.57;;;;;;;;;;722000;189;916263;-64
2021/12/07 10:35:25;;;;;;;65.33;31.97;;;;;;;;;;724873;189;916658;-63
2021/12/07 10:37:57;;;;;;;58.10;29.77;;;;;;;;;;729559;189;919581;-63
2021/12/07 10:40:22;;;;;;;70.07;34.57;;;;;;;;;;728386;189;920294;-63
2021/12/07 10:42:49;;;;;;;63.97;28.20;;;;;;;;;;728132;186;916659;-63
2021/12/07 10:45:14;;;;;;;58.10;27.30;;;;;;;;;;719433;189;1014175;-64
2021/12/07 10:47:40;;;;;;;62.38;26.73;;;;;;;;;;722110;192;913744;-64
2021/12/07 10:50:08;;;;;;;81.57;40.30;;;;;;;;;;735869;187;615181;-64
2021/12/07 10:52:33;;;;;;;61.30;32.20;;;;;;;;;;732942;189;645973;-64
2021/12/07 10:55:15;;;;;;;59.30;32.73;;;;;;;;;;724189;189;916136;-64
2021/12/07 10:57:40;;;;;;;58.57;30.00;;;;;;;;;;717865;189;916109;-64
2021/12/07 11:00:07;;;;;;;66.07;28.37;;;;;;;;;;741237;189;629562;-64
2021/12/07 11:02:34;;;;;;;62.90;28.57;;;;;;;;;;723832;193;639845;-64
2021/12/07 11:04:58;;;;;;;57.17;27.27;;;;;;;;;;712358;196;641020;-65
2021/12/07 11:07:24;;;;;;;56.97;27.00;;;;;;;;;;720166;194;616456;-64
2021/12/07 11:09:56;;;;;;;58.53;28.60;;;;;;;;;;701709;197;619187;-65
2021/12/07 11:12:17;;;;;;;58.40;28.77;;;;;;;;;;723569;189;915952;-64
2021/12/07 11:14:48;;;;;;;67.13;28.17;;;;;;;;;;722428;190;916221;-64
2021/12/07 11:17:08;;;;;;;66.60;28.50;;;;;;;;;;731348;189;918171;-64
2021/12/07 11:19:35;;;;;;;75.93;33.17;;;;;;;;;;720913;189;915962;-64
2021/12/07 11:22:00;;;;;;;89.20;34.10;;;;;;;;;;733512;186;915351;-65
2021/12/07 11:24:32;;;;;;;98.17;40.17;;;;;;;;;;721794;189;916048;-65
2021/12/07 11:32:01;;;;;;;85.40;38.97;;;;;;;;;;724626;189;1019491;-64
2021/12/07 11:34:27;;;;;;;100.70;40.50;;;;;;;;;;727393;189;917634;-65
2021/12/07 11:36:53;;;;;;;112.67;45.63;;;;;;;;;;725836;189;917224;-65
2021/12/07 11:39:25;;;;;;;83.83;38.40;;;;;;;;;;727271;189;916134;-65
2021/12/07 11:41:50;;;;;;;92.30;38.40;;;;;;;;;;722820;189;916132;-65
2021/12/07 11:44:16;;;;;;;104.90;40.20;;;;;;;;;;728550;189;915673;-65
2021/12/07 11:46:42;;;;;;;108.13;47.53;;;;;;;;;;717011;193;916205;-65
2021/12/07 11:49:08;;;;;;;72.07;34.70;;;;;;;;;;733084;189;914667;-65
2021/12/07 11:51:33;;;;;;;71.12;34.42;;;;;;;;;;732401;189;900029;-65
2021/12/07 11:53:59;;;;;;;63.73;35.17;;;;;;;;;;731764;189;916257;-65
2021/12/07 11:56:25;;;;;;;64.53;30.53;;;;;;;;;;727821;189;913190;-65
2021/12/07 11:58:51;;;;;;;57.20;28.67;;;;;;;;;;736678;189;915941;-65
2021/12/07 12:01:17;;;;;;;88.23;37.67;;;;;;;;;;728026;187;916675;-66
2021/12/07 12:03:43;;;;;;;114.27;45.33;;;;;;;;;;725803;189;916114;-66
2021/12/07 12:06:09;;;;;;;75.33;33.23;;;;;;;;;;724587;189;916559;-64
2021/12/07 12:08:34;;;;;;;59.93;30.57;;;;;;;;;;733800;189;919497;-66
2021/12/07 12:11:01;;;;;;;61.97;30.50;;;;;;;;;;711055;193;918568;-66
2021/12/07 12:13:30;;;;;;;60.83;29.93;;;;;;;;;;718813;189;1021900;-65
2021/12/07 12:16:02;;;;;;;66.00;33.60;;;;;;;;;;727463;189;920630;-66
2021/12/07 12:18:32;;;;;;;66.90;31.00;;;;;;;;;;728466;189;919641;-65
2021/12/07 12:20:59;;;;;;;57.10;28.27;;;;;;;;;;729832;189;914974;-65
2021/12/07 12:23:33;;;;;;;53.30;26.23;;;;;;;;;;718673;190;921168;-66
2021/12/07 12:25:56;;;;;;;64.93;27.17;;;;;;;;;;735996;186;915053;-66
2021/12/07 12:28:23;;;;;;;57.27;26.40;;;;;;;;;;725853;190;916817;-66
2021/12/07 12:30:49;;;;;;;65.80;28.77;;;;;;;;;;725320;190;916399;-65
2021/12/07 12:33:15;;;;;;;67.65;31.37;;;;;;;;;;731116;190;915039;-66
2021/12/07 12:35:42;;;;;;;64.93;29.70;;;;;;;;;;726755;189;919073;-66
2021/12/07 12:38:13;;;;;;;65.53;31.23;;;;;;;;;;725445;189;916594;-65
2021/12/07 12:40:38;;;;;;;58.20;28.87;;;;;;;;;;727430;189;916095;-66
2021/12/07 12:43:04;;;;;;;69.70;27.77;;;;;;;;;;730569;189;916665;-65
2021/12/07 12:45:33;;;;;;;58.37;29.70;;;;;;;;;;728126;189;915342;-66
2021/12/07 12:48:00;;;;;;;66.40;31.40;;;;;;;;;;728849;189;919543;-66
2021/12/07 12:50:30;;;;;;;74.17;34.97;;;;;;;;;;719053;190;930694;-66
2021/12/07 12:52:55;;;;;;;79.60;39.70;;;;;;;;;;726449;190;1017550;-66
2021/12/07 12:55:37;;;;;;;75.50;34.57;;;;;;;;;;721545;189;920670;-66
2021/12/07 12:58:03;;;;;;;87.77;42.17;;;;;;;;;;719665;189;1018060;-66
2021/12/07 13:00:35;;;;;;;79.57;32.80;;;;;;;;;;725093;189;920552;-66
2021/12/07 13:03:01;;;;;;;60.60;28.77;;;;;;;;;;723745;189;915965;-66
2021/12/07 13:05:33;;;;;;;62.90;25.60;;;;;;;;;;733531;189;916681;-66
2021/12/07 13:08:03;;;;;;;58.80;26.93;;;;;;;;;;728706;190;618710;-66
2021/12/07 13:10:29;;;;;;;58.30;26.93;;;;;;;;;;729414;189;628733;-67
2021/12/07 13:12:55;;;;;;;54.03;27.07;;;;;;;;;;731071;188;618258;-66
2021/12/07 13:15:22;;;;;;;61.20;27.60;;;;;;;;;;735729;189;922464;-66
2021/12/07 13:17:48;;;;;;;54.43;27.53;;;;;;;;;;726897;189;915942;-66
2021/12/07 13:20:18;;;;;;;58.93;26.30;;;;;;;;;;728081;189;916194;-67
2021/12/07 13:22:44;;;;;;;51.00;27.53;;;;;;;;;;731259;189;916094;-67
2021/12/07 13:25:13;;;;;;;53.10;27.17;;;;;;;;;;725669;189;923978;-67
2021/12/07 13:27:39;;;;;;;55.37;26.93;;;;;;;;;;726861;189;916169;-67
2021/12/07 13:30:06;;;;;;;49.30;23.45;;;;;;;;;;722189;189;923075;-67
2021/12/07 13:32:31;;;;;;;48.80;24.90;;;;;;;;;;730383;187;915251;-67
2021/12/07 13:34:59;;;;;;;51.67;25.07;;;;;;;;;;728018;189;919255;-67
2021/12/07 13:37:25;;;;;;;54.10;26.50;;;;;;;;;;722156;189;916316;-67
2021/12/07 13:39:51;;;;;;;51.37;25.97;;;;;;;;;;725559;189;916622;-67
2021/12/07 13:42:20;;;;;;;49.63;26.10;;;;;;;;;;725854;189;922990;-67
2021/12/07 13:44:46;;;;;;;54.90;27.27;;;;;;;;;;726623;189;919070;-67
2021/12/07 13:47:13;;;;;;;58.20;25.77;;;;;;;;;;725140;189;918979;-67
2021/12/07 13:49:39;;;;;;;56.77;27.00;;;;;;;;;;729469;189;917251;-67
2021/12/07 13:52:07;;;;;;;63.23;25.07;;;;;;;;;;728114;189;917366;-67
2021/12/07 13:54:33;;;;;;;49.17;24.90;;;;;;;;;;720452;190;922554;-67
2021/12/07 13:56:59;;;;;;;56.50;27.03;;;;;;;;;;735808;189;918046;-67
2021/12/07 13:59:26;;;;;;;64.70;32.20;;;;;;;;;;726679;189;915851;-69
2021/12/07 14:01:50;;;;;;;71.30;31.97;;;;;;;;;;728773;189;812226;-67
2021/12/07 14:04:16;;;;;;;55.40;28.07;;;;;;;;;;723425;189;912033;-66
2021/12/07 14:06:47;;;;;;;58.20;29.13;;;;;;;;;;728173;189;912424;-68
2021/12/07 14:09:12;;;;;;;57.23;28.97;;;;;;;;;;725755;189;912321;-67
2021/12/07 14:11:38;;;;;;;50.38;25.48;;;;;;;;;;721812;189;916188;-67
2021/12/07 14:14:08;;;;;;;62.17;28.40;;;;;;;;;;728254;189;915998;-67
2021/12/07 14:16:34;;;;;;;73.27;28.20;;;;;;;;;;731384;189;916089;-67
2021/12/07 14:19:00;;;;;;;61.13;27.60;;;;;;;;;;714688;193;915777;-67
2021/12/07 14:21:26;;;;;;;50.37;25.67;;;;;;;;;;705269;196;900949;-67
2021/12/07 14:23:54;;;;;;;65.27;29.10;;;;;;;;;;715564;192;916196;-67
2021/12/07 14:26:18;;;;;;;74.17;37.10;;;;;;;;;;716726;193;919694;-66
2021/12/07 14:28:46;;;;;;;163.40;70.13;;;;;;;;;;700104;197;916154;-69
2021/12/07 14:31:13;;;;;;;112.27;53.33;;;;;;;;;;733572;186;1018201;-70
2021/12/07 14:33:43;;;;;;;195.67;89.43;;;;;;;;;;730327;189;916173;-67
2021/12/07 14:36:08;;;;;;;155.93;68.83;;;;;;;;;;727598;189;919936;-67
2021/12/07 14:38:34;;;;;;;199.97;80.40;;;;;;;;;;725485;189;946065;-67
2021/12/07 14:41:03;;;;;;;189.50;85.03;;;;;;;;;;729835;189;920319;-67
2021/12/07 14:43:29;;;;;;;112.53;54.88;;;;;;;;;;723627;189;920117;-67
2021/12/07 14:45:55;;;;;;;116.57;48.40;;;;;;;;;;721307;189;1022215;-67
2021/12/07 14:48:22;;;;;;;95.10;50.80;;;;;;;;;;726597;189;929577;-67
2021/12/07 14:50:47;;;;;;;87.83;44.17;;;;;;;;;;723073;189;1018880;-67
2021/12/07 14:53:13;;;;;;;71.10;33.07;;;;;;;;;;726031;189;913044;-67
2021/12/07 14:55:39;;;;;;;70.73;36.00;;;;;;;;;;724588;189;919007;-67
2021/12/07 14:58:05;;;;;;;66.47;32.13;;;;;;;;;;724908;189;918060;-66
2021/12/07 15:00:31;;;;;;;90.97;41.93;;;;;;;;;;712828;193;1121244;-66
2021/12/07 15:02:57;;;;;;;80.10;37.57;;;;;;;;;;703419;197;920737;-66
2021/12/07 15:05:22;;;;;;;81.30;38.00;;;;;;;;;;717467;194;922048;-66
2021/12/07 15:07:48;;;;;;;86.57;36.17;;;;;;;;;;714401;193;931547;-66
2021/12/07 15:10:14;;;;;;;89.67;37.73;;;;;;;;;;713824;193;922061;-66
2021/12/07 15:12:40;;;;;;;102.63;47.40;;;;;;;;;;705886;197;923765;-66
2021/12/07 15:15:06;;;;;;;91.87;41.13;;;;;;;;;;705637;197;919437;-65
2021/12/07 15:17:32;;;;;;;99.43;45.80;;;;;;;;;;726838;189;920826;-65
2021/12/07 15:19:59;;;;;;;113.15;50.90;;;;;;;;;;727395;189;919516;-65
2021/12/07 15:22:24;;;;;;;169.23;76.07;;;;;;;;;;727951;189;918961;-65
2021/12/07 15:24:50;;;;;;;170.30;69.80;;;;;;;;;;714844;193;918719;-65